sensor_id;sensor_type;location;lat;lon;timestamp;pressure;altitude;pressure_sealevel;temperature;humidity
25869;BME280;13688;53.154;18.136;2023-07-28T00:01:57;99876.46;;;16.47;100.00
25869;BME280;13688;53.154;18.136;2023-07-28T00:07:20;99868.98;;;16.49;100.00
25869;BME280;13688;53.154;18.136;2023-07-28T00:12:45;99873.05;;;16.53;100.00
25869;BME280;13688;53.154;18.136;2023-07-28T00:18:07;99859.77;;;16.58;100.00
25869;BME280;13688;53.154;18.136;2023-07-28T00:23:31;99854.34;;;16.58;100.00
25869;BME280;13688;53.154;18.136;2023-07-28T00:28:53;99852.55;;;16.50;100.00
25869;BME280;13688;53.154;18.136;2023-07-28T00:34:16;99853.95;;;16.38;100.00
25869;BME280;13688;53.154;18.136;2023-07-28T00:39:39;99853.66;;;16.33;100.00
25869;BME280;13688;53.154;18.136;2023-07-28T00:45:01;99856.99;;;16.43;100.00
25869;BME280;13688;53.154;18.136;2023-07-28T00:50:24;99857.61;;;16.53;100.00
25869;BME280;13688;53.154;18.136;2023-07-28T00:55:47;99847.41;;;16.55;100.00
25869;BME280;13688;53.154;18.136;2023-07-28T01:01:09;99832.63;;;16.58;100.00
25869;BME280;13688;53.154;18.136;2023-07-28T01:07:09;99828.05;;;16.58;100.00
25869;BME280;13688;53.154;18.136;2023-07-28T01:12:48;99825.33;;;16.58;100.00
25869;BME280;13688;53.154;18.136;2023-07-28T01:18:11;99809.23;;;16.57;100.00
25869;BME280;13688;53.154;18.136;2023-07-28T01:23:44;99810.13;;;16.49;100.00
25869;BME280;13688;53.154;18.136;2023-07-28T01:29:24;99811.05;;;16.42;100.00
25869;BME280;13688;53.154;18.136;2023-07-28T01:34:46;99810.54;;;16.38;100.00
25869;BME280;13688;53.154;18.136;2023-07-28T01:40:09;99805.85;;;16.32;100.00
25869;BME280;13688;53.154;18.136;2023-07-28T01:45:33;99803.14;;;16.32;100.00
25869;BME280;13688;53.154;18.136;2023-07-28T01:50:55;99798.05;;;16.29;100.00
25869;BME280;13688;53.154;18.136;2023-07-28T01:56:17;99783.45;;;16.30;100.00
25869;BME280;13688;53.154;18.136;2023-07-28T02:01:41;99786.53;;;16.27;100.00
25869;BME280;13688;53.154;18.136;2023-07-28T02:07:03;99774.66;;;16.28;100.00
25869;BME280;13688;53.154;18.136;2023-07-28T02:12:26;99768.20;;;16.29;100.00
25869;BME280;13688;53.154;18.136;2023-07-28T02:17:49;99763.34;;;16.24;100.00
25869;BME280;13688;53.154;18.136;2023-07-28T02:23:11;99762.17;;;16.19;100.00
25869;BME280;13688;53.154;18.136;2023-07-28T02:28:34;99744.21;;;16.18;100.00
25869;BME280;13688;53.154;18.136;2023-07-28T02:33:56;99745.42;;;16.15;100.00
25869;BME280;13688;53.154;18.136;2023-07-28T02:39:18;99742.39;;;16.10;100.00
25869;BME280;13688;53.154;18.136;2023-07-28T02:44:41;99748.50;;;16.12;100.00
25869;BME280;13688;53.154;18.136;2023-07-28T02:50:03;99747.16;;;16.08;100.00
25869;BME280;13688;53.154;18.136;2023-07-28T02:55:26;99747.19;;;16.00;100.00
25869;BME280;13688;53.154;18.136;2023-07-28T03:00:51;99746.02;;;16.02;100.00
25869;BME280;13688;53.154;18.136;2023-07-28T03:06:14;99738.77;;;15.95;100.00
25869;BME280;13688;53.154;18.136;2023-07-28T03:11:36;99740.97;;;15.91;100.00
25869;BME280;13688;53.154;18.136;2023-07-28T03:16:59;99741.52;;;15.87;100.00
25869;BME280;13688;53.154;18.136;2023-07-28T03:22:21;99738.14;;;15.85;100.00
25869;BME280;13688;53.154;18.136;2023-07-28T03:27:44;99735.06;;;15.88;100.00
25869;BME280;13688;53.154;18.136;2023-07-28T03:33:06;99725.83;;;15.74;100.00
25869;BME280;13688;53.154;18.136;2023-07-28T03:38:28;99723.66;;;15.61;100.00
25869;BME280;13688;53.154;18.136;2023-07-28T03:43:51;99735.86;;;15.57;100.00
25869;BME280;13688;53.154;18.136;2023-07-28T03:49:13;99725.70;;;15.51;100.00
25869;BME280;13688;53.154;18.136;2023-07-28T03:54:36;99721.49;;;15.49;100.00
25869;BME280;13688;53.154;18.136;2023-07-28T03:59:58;99711.02;;;15.45;100.00
25869;BME280;13688;53.154;18.136;2023-07-28T04:05:21;99709.81;;;15.48;100.00
25869;BME280;13688;53.154;18.136;2023-07-28T04:10:43;99713.36;;;15.49;100.00
25869;BME280;13688;53.154;18.136;2023-07-28T04:16:06;99712.04;;;15.44;100.00
25869;BME280;13688;53.154;18.136;2023-07-28T04:21:29;99703.73;;;15.46;100.00
25869;BME280;13688;53.154;18.136;2023-07-28T04:26:52;99693.86;;;15.53;100.00
25869;BME280;13688;53.154;18.136;2023-07-28T04:32:15;99695.24;;;15.49;100.00
25869;BME280;13688;53.154;18.136;2023-07-28T04:37:37;99692.72;;;15.48;100.00
25869;BME280;13688;53.154;18.136;2023-07-28T04:43:00;99691.36;;;15.43;100.00
25869;BME280;13688;53.154;18.136;2023-07-28T04:48:22;99684.08;;;15.44;100.00
25869;BME280;13688;53.154;18.136;2023-07-28T04:53:44;99680.52;;;15.43;100.00
25869;BME280;13688;53.154;18.136;2023-07-28T04:59:07;99678.98;;;15.49;100.00
25869;BME280;13688;53.154;18.136;2023-07-28T05:04:29;99670.38;;;15.45;100.00
25869;BME280;13688;53.154;18.136;2023-07-28T05:09:52;99667.31;;;15.49;100.00
25869;BME280;13688;53.154;18.136;2023-07-28T05:15:15;99664.23;;;15.52;100.00
25869;BME280;13688;53.154;18.136;2023-07-28T05:20:37;99668.16;;;15.49;100.00
25869;BME280;13688;53.154;18.136;2023-07-28T05:26:00;99664.78;;;15.47;100.00
25869;BME280;13688;53.154;18.136;2023-07-28T05:31:22;99670.20;;;15.47;100.00
25869;BME280;13688;53.154;18.136;2023-07-28T05:36:45;99663.43;;;15.43;100.00
25869;BME280;13688;53.154;18.136;2023-07-28T05:42:08;99665.84;;;15.38;100.00
25869;BME280;13688;53.154;18.136;2023-07-28T05:47:30;99663.16;;;15.30;100.00
25869;BME280;13688;53.154;18.136;2023-07-28T05:52:53;99660.27;;;15.31;100.00
25869;BME280;13688;53.154;18.136;2023-07-28T05:58:15;99659.06;;;15.34;100.00
25869;BME280;13688;53.154;18.136;2023-07-28T06:03:38;99668.58;;;15.30;100.00
25869;BME280;13688;53.154;18.136;2023-07-28T06:09:01;99654.88;;;15.23;100.00
25869;BME280;13688;53.154;18.136;2023-07-28T06:14:24;99659.99;;;15.18;100.00
25869;BME280;13688;53.154;18.136;2023-07-28T06:19:47;99653.09;;;15.07;100.00
25869;BME280;13688;53.154;18.136;2023-07-28T06:25:09;99664.25;;;15.04;100.00
25869;BME280;13688;53.154;18.136;2023-07-28T06:30:32;99660.03;;;15.02;100.00
25869;BME280;13688;53.154;18.136;2023-07-28T06:35:55;99670.02;;;15.01;100.00
25869;BME280;13688;53.154;18.136;2023-07-28T06:41:17;99675.13;;;14.96;100.00
25869;BME280;13688;53.154;18.136;2023-07-28T06:46:41;99656.17;;;14.96;100.00
25869;BME280;13688;53.154;18.136;2023-07-28T06:52:04;99662.11;;;14.83;100.00
25869;BME280;13688;53.154;18.136;2023-07-28T06:57:26;99656.02;;;14.89;100.00
25869;BME280;13688;53.154;18.136;2023-07-28T07:02:50;99652.79;;;14.86;100.00
25869;BME280;13688;53.154;18.136;2023-07-28T07:08:13;99642.98;;;14.85;100.00
25869;BME280;13688;53.154;18.136;2023-07-28T07:13:37;99635.70;;;14.85;100.00
25869;BME280;13688;53.154;18.136;2023-07-28T07:18:59;99640.73;;;15.05;100.00
25869;BME280;13688;53.154;18.136;2023-07-28T07:24:23;99641.91;;;15.10;100.00
25869;BME280;13688;53.154;18.136;2023-07-28T07:29:45;99650.00;;;15.18;100.00
25869;BME280;13688;53.154;18.136;2023-07-28T07:35:08;99648.44;;;15.24;100.00
25869;BME280;13688;53.154;18.136;2023-07-28T07:40:30;99654.38;;;15.28;100.00
25869;BME280;13688;53.154;18.136;2023-07-28T07:45:53;99666.23;;;15.27;100.00
25869;BME280;13688;53.154;18.136;2023-07-28T07:51:16;99660.27;;;15.31;100.00
25869;BME280;13688;53.154;18.136;2023-07-28T07:56:38;99662.47;;;15.36;100.00
25869;BME280;13688;53.154;18.136;2023-07-28T08:02:01;99662.11;;;15.39;100.00
25869;BME280;13688;53.154;18.136;2023-07-28T08:07:24;99664.45;;;15.42;100.00
25869;BME280;13688;53.154;18.136;2023-07-28T08:12:47;99652.05;;;15.56;100.00
25869;BME280;13688;53.154;18.136;2023-07-28T08:18:13;99656.44;;;15.57;100.00
25869;BME280;13688;53.154;18.136;2023-07-28T08:23:35;99645.23;;;15.60;100.00
25869;BME280;13688;53.154;18.136;2023-07-28T08:28:58;99662.70;;;15.57;100.00
25869;BME280;13688;53.154;18.136;2023-07-28T08:34:21;99661.16;;;15.63;100.00
25869;BME280;13688;53.154;18.136;2023-07-28T08:39:44;99655.37;;;15.74;100.00
25869;BME280;13688;53.154;18.136;2023-07-28T08:45:08;99673.70;;;15.95;100.00
25869;BME280;13688;53.154;18.136;2023-07-28T08:50:30;99678.09;;;15.96;100.00
25869;BME280;13688;53.154;18.136;2023-07-28T08:55:53;99671.17;;;15.93;100.00
25869;BME280;13688;53.154;18.136;2023-07-28T09:01:16;99658.03;;;16.05;100.00
25869;BME280;13688;53.154;18.136;2023-07-28T09:06:44;99645.32;;;16.06;100.00
25869;BME280;13688;53.154;18.136;2023-07-28T09:12:06;99641.40;;;16.31;100.00
25869;BME280;13688;53.154;18.136;2023-07-28T09:17:31;99638.38;;;16.64;100.00
25869;BME280;13688;53.154;18.136;2023-07-28T09:22:56;99639.56;;;16.84;100.00
25869;BME280;13688;53.154;18.136;2023-07-28T09:28:20;99633.38;;;17.05;100.00
25869;BME280;13688;53.154;18.136;2023-07-28T09:33:56;99630.83;;;17.33;100.00
25869;BME280;13688;53.154;18.136;2023-07-28T09:39:18;99635.04;;;17.35;100.00
25869;BME280;13688;53.154;18.136;2023-07-28T09:44:42;99639.63;;;17.35;100.00
25869;BME280;13688;53.154;18.136;2023-07-28T09:50:05;99633.36;;;17.34;100.00
25869;BME280;13688;53.154;18.136;2023-07-28T09:55:32;99630.38;;;17.29;100.00
25869;BME280;13688;53.154;18.136;2023-07-28T10:00:58;99628.70;;;17.28;100.00
25869;BME280;13688;53.154;18.136;2023-07-28T10:06:27;99631.77;;;17.40;100.00
25869;BME280;13688;53.154;18.136;2023-07-28T10:12:08;99619.45;;;17.59;100.00
25869;BME280;13688;53.154;18.136;2023-07-28T10:17:49;99622.19;;;18.16;100.00
25869;BME280;13688;53.154;18.136;2023-07-28T10:23:21;99618.97;;;18.55;100.00
25869;BME280;13688;53.154;18.136;2023-07-28T10:28:50;99621.02;;;18.75;100.00
25869;BME280;13688;53.154;18.136;2023-07-28T10:34:22;99611.84;;;19.17;100.00
25869;BME280;13688;53.154;18.136;2023-07-28T10:39:47;99606.27;;;19.93;100.00
25869;BME280;13688;53.154;18.136;2023-07-28T10:45:33;99604.03;;;20.43;100.00
25869;BME280;13688;53.154;18.136;2023-07-28T10:50:57;99602.98;;;20.44;100.00
25869;BME280;13688;53.154;18.136;2023-07-28T10:56:21;99605.91;;;20.62;100.00
25869;BME280;13688;53.154;18.136;2023-07-28T11:01:46;99603.40;;;20.61;100.00
25869;BME280;13688;53.154;18.136;2023-07-28T11:07:11;99606.77;;;20.49;100.00
25869;BME280;13688;53.154;18.136;2023-07-28T11:12:35;99617.58;;;19.83;100.00
25869;BME280;13688;53.154;18.136;2023-07-28T11:18:00;99627.59;;;19.63;100.00
25869;BME280;13688;53.154;18.136;2023-07-28T11:23:23;99639.17;;;19.30;100.00
25869;BME280;13688;53.154;18.136;2023-07-28T11:28:46;99633.39;;;20.08;100.00
25869;BME280;13688;53.154;18.136;2023-07-28T11:34:14;99630.88;;;20.33;100.00
25869;BME280;13688;53.154;18.136;2023-07-28T11:39:38;99623.33;;;20.28;100.00
25869;BME280;13688;53.154;18.136;2023-07-28T11:45:02;99622.27;;;20.36;100.00
25869;BME280;13688;53.154;18.136;2023-07-28T11:50:40;99617.84;;;20.15;100.00
25869;BME280;13688;53.154;18.136;2023-07-28T11:56:06;99630.88;;;20.19;100.00
25869;BME280;13688;53.154;18.136;2023-07-28T12:01:30;99618.30;;;20.38;100.00
25869;BME280;13688;53.154;18.136;2023-07-28T12:07:17;99626.31;;;21.51;100.00
25869;BME280;13688;53.154;18.136;2023-07-28T12:12:46;99610.92;;;22.01;100.00
25869;BME280;13688;53.154;18.136;2023-07-28T12:18:13;99627.14;;;21.58;100.00
25869;BME280;13688;53.154;18.136;2023-07-28T12:23:38;99636.66;;;21.42;100.00
25869;BME280;13688;53.154;18.136;2023-07-28T12:29:02;99633.27;;;21.53;100.00
25869;BME280;13688;53.154;18.136;2023-07-28T12:34:27;99636.37;;;20.72;100.00
25869;BME280;13688;53.154;18.136;2023-07-28T12:39:54;99639.82;;;19.87;100.00
25869;BME280;13688;53.154;18.136;2023-07-28T12:45:17;99642.17;;;19.07;100.00
25869;BME280;13688;53.154;18.136;2023-07-28T12:50:44;99647.92;;;18.91;100.00
25869;BME280;13688;53.154;18.136;2023-07-28T12:56:09;99645.99;;;20.35;100.00
25869;BME280;13688;53.154;18.136;2023-07-28T13:01:36;99645.67;;;21.56;100.00
25869;BME280;13688;53.154;18.136;2023-07-28T13:06:59;99638.88;;;21.71;100.00
25869;BME280;13688;53.154;18.136;2023-07-28T13:12:28;99643.00;;;21.23;100.00
25869;BME280;13688;53.154;18.136;2023-07-28T13:17:50;99651.14;;;21.56;100.00
25869;BME280;13688;53.154;18.136;2023-07-28T13:23:13;99665.34;;;21.78;100.00
25869;BME280;13688;53.154;18.136;2023-07-28T13:28:36;99657.45;;;21.56;100.00
25869;BME280;13688;53.154;18.136;2023-07-28T13:33:59;99652.67;;;21.38;100.00
25869;BME280;13688;53.154;18.136;2023-07-28T13:39:22;99652.11;;;21.75;100.00
25869;BME280;13688;53.154;18.136;2023-07-28T13:44:45;99644.41;;;22.35;100.00
25869;BME280;13688;53.154;18.136;2023-07-28T13:50:07;99654.85;;;23.19;100.00
25869;BME280;13688;53.154;18.136;2023-07-28T13:55:30;99668.75;;;23.61;100.00
25869;BME280;13688;53.154;18.136;2023-07-28T14:00:54;99680.48;;;21.80;100.00
25869;BME280;13688;53.154;18.136;2023-07-28T14:06:17;99719.47;;;21.69;100.00
25869;BME280;13688;53.154;18.136;2023-07-28T14:11:40;99719.61;;;21.87;100.00
25869;BME280;13688;53.154;18.136;2023-07-28T14:17:03;99722.86;;;22.22;100.00
25869;BME280;13688;53.154;18.136;2023-07-28T14:22:26;99739.58;;;22.01;100.00
25869;BME280;13688;53.154;18.136;2023-07-28T14:27:49;99729.73;;;21.80;100.00
25869;BME280;13688;53.154;18.136;2023-07-28T14:33:13;99726.29;;;22.11;100.00
25869;BME280;13688;53.154;18.136;2023-07-28T14:38:39;99738.72;;;22.07;100.00
25869;BME280;13688;53.154;18.136;2023-07-28T14:44:04;99743.64;;;21.79;100.00
25869;BME280;13688;53.154;18.136;2023-07-28T14:49:27;99738.80;;;23.20;100.00
25869;BME280;13688;53.154;18.136;2023-07-28T14:54:50;99732.77;;;23.91;97.37
25869;BME280;13688;53.154;18.136;2023-07-28T15:00:14;99742.99;;;23.23;96.29
25869;BME280;13688;53.154;18.136;2023-07-28T15:05:36;99752.92;;;23.67;93.99
25869;BME280;13688;53.154;18.136;2023-07-28T15:10:59;99755.70;;;22.61;90.67
25869;BME280;13688;53.154;18.136;2023-07-28T15:16:22;99775.52;;;21.53;100.00
25869;BME280;13688;53.154;18.136;2023-07-28T15:21:44;99762.48;;;22.83;96.38
25869;BME280;13688;53.154;18.136;2023-07-28T15:27:07;99767.57;;;23.54;88.00
25869;BME280;13688;53.154;18.136;2023-07-28T15:32:30;99780.05;;;23.32;85.92
25869;BME280;13688;53.154;18.136;2023-07-28T15:37:53;99772.75;;;22.63;88.67
25869;BME280;13688;53.154;18.136;2023-07-28T15:43:17;99784.81;;;22.55;89.13
25869;BME280;13688;53.154;18.136;2023-07-28T15:48:40;99792.45;;;22.84;87.55
25869;BME280;13688;53.154;18.136;2023-07-28T15:54:02;99796.69;;;22.42;93.00
25869;BME280;13688;53.154;18.136;2023-07-28T15:59:28;99791.31;;;22.22;96.70
25869;BME280;13688;53.154;18.136;2023-07-28T16:04:51;99803.45;;;22.78;88.64
25869;BME280;13688;53.154;18.136;2023-07-28T16:10:15;99793.28;;;22.47;84.07
25869;BME280;13688;53.154;18.136;2023-07-28T16:15:38;99812.28;;;22.42;88.64
25869;BME280;13688;53.154;18.136;2023-07-28T16:21:00;99822.84;;;23.64;82.61
25869;BME280;13688;53.154;18.136;2023-07-28T16:26:34;99810.99;;;23.14;78.67
25869;BME280;13688;53.154;18.136;2023-07-28T16:31:56;99832.00;;;22.57;87.71
25869;BME280;13688;53.154;18.136;2023-07-28T16:37:21;99837.27;;;22.07;90.12
25869;BME280;13688;53.154;18.136;2023-07-28T16:42:44;99838.69;;;22.30;87.59
25869;BME280;13688;53.154;18.136;2023-07-28T16:48:07;99849.96;;;21.75;92.04
25869;BME280;13688;53.154;18.136;2023-07-28T16:53:30;99862.34;;;20.98;99.73
25869;BME280;13688;53.154;18.136;2023-07-28T16:58:53;99864.42;;;20.90;100.00
25869;BME280;13688;53.154;18.136;2023-07-28T17:04:16;99874.76;;;21.07;100.00
25869;BME280;13688;53.154;18.136;2023-07-28T17:09:39;99876.91;;;21.58;100.00
25869;BME280;13688;53.154;18.136;2023-07-28T17:15:02;99872.29;;;21.72;100.00
25869;BME280;13688;53.154;18.136;2023-07-28T17:20:27;99885.04;;;20.99;100.00
25869;BME280;13688;53.154;18.136;2023-07-28T17:25:58;99894.31;;;20.43;100.00
25869;BME280;13688;53.154;18.136;2023-07-28T17:31:26;99898.27;;;20.41;100.00
25869;BME280;13688;53.154;18.136;2023-07-28T17:36:49;99882.26;;;20.31;100.00
25869;BME280;13688;53.154;18.136;2023-07-28T17:42:11;99890.50;;;20.03;100.00
25869;BME280;13688;53.154;18.136;2023-07-28T17:47:35;99900.94;;;19.93;100.00
25869;BME280;13688;53.154;18.136;2023-07-28T17:52:58;99907.70;;;19.69;100.00
25869;BME280;13688;53.154;18.136;2023-07-28T17:58:21;99914.98;;;19.62;100.00
25869;BME280;13688;53.154;18.136;2023-07-28T18:03:44;99923.73;;;19.57;100.00
25869;BME280;13688;53.154;18.136;2023-07-28T18:09:06;99927.61;;;19.48;100.00
25869;BME280;13688;53.154;18.136;2023-07-28T18:14:29;99936.08;;;19.32;100.00
25869;BME280;13688;53.154;18.136;2023-07-28T18:19:51;99944.06;;;19.33;100.00
25869;BME280;13688;53.154;18.136;2023-07-28T18:25:14;99947.83;;;19.32;100.00
25869;BME280;13688;53.154;18.136;2023-07-28T18:30:37;99947.83;;;19.32;100.00
25869;BME280;13688;53.154;18.136;2023-07-28T18:36:00;99954.48;;;19.08;100.00
25869;BME280;13688;53.154;18.136;2023-07-28T18:41:23;99962.12;;;18.98;100.00
25869;BME280;13688;53.154;18.136;2023-07-28T18:46:47;99964.00;;;18.98;100.00
25869;BME280;13688;53.154;18.136;2023-07-28T18:52:12;99970.37;;;19.05;100.00
25869;BME280;13688;53.154;18.136;2023-07-28T18:57:35;99971.30;;;19.12;100.00
25869;BME280;13688;53.154;18.136;2023-07-28T19:02:58;99972.71;;;19.08;100.00
25869;BME280;13688;53.154;18.136;2023-07-28T19:08:21;99977.65;;;19.19;100.00
25869;BME280;13688;53.154;18.136;2023-07-28T19:13:45;99983.14;;;19.40;100.00
25869;BME280;13688;53.154;18.136;2023-07-28T19:19:08;99987.55;;;19.41;100.00
25869;BME280;13688;53.154;18.136;2023-07-28T19:24:31;99995.94;;;19.04;100.00
25869;BME280;13688;53.154;18.136;2023-07-28T19:29:55;99991.45;;;18.81;100.00
25869;BME280;13688;53.154;18.136;2023-07-28T19:35:18;100000.95;;;18.56;100.00
25869;BME280;13688;53.154;18.136;2023-07-28T19:40:40;100011.34;;;18.08;100.00
25869;BME280;13688;53.154;18.136;2023-07-28T19:46:08;100026.83;;;17.85;100.00
25869;BME280;13688;53.154;18.136;2023-07-28T19:51:31;100029.02;;;17.66;100.00
25869;BME280;13688;53.154;18.136;2023-07-28T19:56:54;100036.80;;;16.84;100.00
25869;BME280;13688;53.154;18.136;2023-07-28T20:02:17;100044.07;;;16.20;100.00
25869;BME280;13688;53.154;18.136;2023-07-28T20:07:40;100046.48;;;16.07;100.00
25869;BME280;13688;53.154;18.136;2023-07-28T20:13:02;100051.58;;;15.94;100.00
25869;BME280;13688;53.154;18.136;2023-07-28T20:18:26;100060.38;;;15.80;100.00
25869;BME280;13688;53.154;18.136;2023-07-28T20:23:48;100065.96;;;15.70;100.00
25869;BME280;13688;53.154;18.136;2023-07-28T20:29:11;100070.52;;;15.61;100.00
25869;BME280;13688;53.154;18.136;2023-07-28T20:34:33;100070.64;;;15.52;100.00
25869;BME280;13688;53.154;18.136;2023-07-28T20:39:56;100075.37;;;15.41;100.00
25869;BME280;13688;53.154;18.136;2023-07-28T20:45:18;100080.26;;;15.30;100.00
25869;BME280;13688;53.154;18.136;2023-07-28T20:50:41;100079.55;;;15.20;100.00
25869;BME280;13688;53.154;18.136;2023-07-28T20:56:04;100088.33;;;15.13;100.00
25869;BME280;13688;53.154;18.136;2023-07-28T21:01:26;100091.53;;;15.09;100.00
25869;BME280;13688;53.154;18.136;2023-07-28T21:06:49;100088.69;;;15.18;100.00
25869;BME280;13688;53.154;18.136;2023-07-28T21:12:11;100097.46;;;15.12;100.00
25869;BME280;13688;53.154;18.136;2023-07-28T21:17:33;100103.11;;;15.27;100.00
25869;BME280;13688;53.154;18.136;2023-07-28T21:22:56;100112.73;;;15.22;100.00
25869;BME280;13688;53.154;18.136;2023-07-28T21:28:19;100115.23;;;15.07;100.00
25869;BME280;13688;53.154;18.136;2023-07-28T21:33:41;100117.22;;;14.97;100.00
25869;BME280;13688;53.154;18.136;2023-07-28T21:39:06;100114.77;;;14.85;100.00
25869;BME280;13688;53.154;18.136;2023-07-28T21:44:28;100113.57;;;14.80;100.00
25869;BME280;13688;53.154;18.136;2023-07-28T21:49:52;100124.84;;;14.67;100.00
25869;BME280;13688;53.154;18.136;2023-07-28T21:55:16;100126.67;;;14.67;100.00
25869;BME280;13688;53.154;18.136;2023-07-28T22:00:38;100133.91;;;14.58;100.00
25869;BME280;13688;53.154;18.136;2023-07-28T22:06:02;100132.84;;;14.51;100.00
25869;BME280;13688;53.154;18.136;2023-07-28T22:11:27;100130.77;;;14.45;100.00
25869;BME280;13688;53.154;18.136;2023-07-28T22:16:49;100137.02;;;14.45;100.00
25869;BME280;13688;53.154;18.136;2023-07-28T22:22:12;100140.91;;;14.69;100.00
25869;BME280;13688;53.154;18.136;2023-07-28T22:27:35;100142.89;;;14.93;100.00
25869;BME280;13688;53.154;18.136;2023-07-28T22:32:58;100141.92;;;15.02;100.00
25869;BME280;13688;53.154;18.136;2023-07-28T22:38:21;100153.09;;;14.99;100.00
25869;BME280;13688;53.154;18.136;2023-07-28T22:43:44;100164.55;;;14.93;100.00
25869;BME280;13688;53.154;18.136;2023-07-28T22:49:06;100161.84;;;14.93;100.00
25869;BME280;13688;53.154;18.136;2023-07-28T22:54:29;100173.00;;;14.89;100.00
25869;BME280;13688;53.154;18.136;2023-07-28T22:59:51;100168.77;;;14.87;100.00
25869;BME280;13688;53.154;18.136;2023-07-28T23:05:14;100180.58;;;14.86;100.00
25869;BME280;13688;53.154;18.136;2023-07-28T23:10:36;100172.56;;;14.76;100.00
25869;BME280;13688;53.154;18.136;2023-07-28T23:16:00;100175.38;;;14.67;100.00
25869;BME280;13688;53.154;18.136;2023-07-28T23:21:23;100167.75;;;14.62;100.00
25869;BME280;13688;53.154;18.136;2023-07-28T23:26:45;100169.61;;;14.62;100.00
25869;BME280;13688;53.154;18.136;2023-07-28T23:32:08;100180.04;;;14.56;100.00
25869;BME280;13688;53.154;18.136;2023-07-28T23:37:31;100174.27;;;14.51;100.00
25869;BME280;13688;53.154;18.136;2023-07-28T23:42:53;100178.67;;;14.52;100.00
25869;BME280;13688;53.154;18.136;2023-07-28T23:48:15;100185.42;;;14.48;100.00
25869;BME280;13688;53.154;18.136;2023-07-28T23:53:38;100197.83;;;14.41;100.00
25869;BME280;13688;53.154;18.136;2023-07-28T23:59:00;100208.18;;;14.28;100.00
